createdAt,value
2018-01-26T00:00:00.918Z,6.60
2018-01-26T00:02:28.388Z,6.60
2018-01-26T00:04:55.876Z,5.77
2018-01-26T00:07:23.342Z,5.70
2018-01-26T00:09:50.835Z,7.20
2018-01-26T00:12:19.074Z,6.60
2018-01-26T00:14:46.553Z,4.60
2018-01-26T00:17:14.026Z,4.40
2018-01-26T00:19:41.523Z,5.10
2018-01-26T00:22:09.763Z,4.50
2018-01-26T00:24:37.247Z,5.20
2018-01-26T00:27:04.724Z,6.50
2018-01-26T00:29:32.210Z,6.67
2018-01-26T00:32:00.454Z,6.00
2018-01-26T00:34:27.952Z,2.70
2018-01-26T00:36:55.415Z,3.30
2018-01-26T00:39:22.912Z,3.30
2018-01-26T00:41:51.147Z,3.67
2018-01-26T00:44:18.646Z,4.10
2018-01-26T00:46:46.114Z,3.00
2018-01-26T00:49:13.615Z,2.17
2018-01-26T00:51:41.854Z,1.60
2018-01-26T00:54:09.328Z,1.80
2018-01-26T00:56:36.817Z,2.70
2018-01-26T00:59:04.286Z,2.30
2018-01-26T01:01:31.779Z,2.07
2018-01-26T01:04:00.024Z,1.80
2018-01-26T01:06:27.511Z,1.80
2018-01-26T01:08:54.983Z,1.70
2018-01-26T01:11:22.479Z,2.60
2018-01-26T01:13:50.721Z,2.17
2018-01-26T01:16:18.211Z,1.90
2018-01-26T01:18:45.678Z,1.47
2018-01-26T01:21:13.166Z,2.03
2018-01-26T01:23:40.639Z,1.57
2018-01-26T01:26:08.896Z,1.57
2018-01-26T01:28:36.371Z,2.00
2018-01-26T01:31:03.859Z,2.30
2018-01-26T01:33:31.327Z,1.60
2018-01-26T01:35:58.818Z,2.50
2018-01-26T01:38:27.062Z,1.80
2018-01-26T01:40:54.566Z,1.30
2018-01-26T01:43:22.810Z,2.50
2018-01-26T01:45:50.299Z,1.60
2018-01-26T01:48:17.770Z,1.10
2018-01-26T01:50:45.246Z,1.73
2018-01-26T01:53:12.731Z,1.70
2018-01-26T01:55:40.198Z,2.03
2018-01-26T01:58:07.686Z,1.97
2018-01-26T02:00:35.922Z,2.07
2018-01-26T02:03:03.411Z,2.30
2018-01-26T02:05:30.891Z,1.60
2018-01-26T02:07:58.387Z,2.10
2018-01-26T02:10:25.866Z,1.97
2018-01-26T02:12:53.359Z,2.30
2018-01-26T02:15:20.831Z,2.03
2018-01-26T02:17:48.326Z,2.73
2018-01-26T02:20:15.795Z,2.47
2018-01-26T02:22:43.287Z,2.87
2018-01-26T02:25:29.131Z,3.03
2018-01-26T02:27:56.618Z,4.00
2018-01-26T02:30:24.090Z,4.47
2018-01-26T02:32:51.588Z,4.40
2018-01-26T02:35:19.062Z,4.37
2018-01-26T02:37:54.452Z,5.60
2018-01-26T02:40:21.927Z,5.67
2018-01-26T02:42:49.418Z,6.77
2018-01-26T02:45:16.886Z,6.87
2018-01-26T02:47:44.383Z,7.50
2018-01-26T02:50:11.855Z,8.50
2018-01-26T02:52:39.346Z,8.53
2018-01-26T02:55:07.587Z,9.00
2018-01-26T02:57:35.091Z,10.20
2018-01-26T03:00:02.570Z,11.43
2018-01-26T03:02:30.830Z,11.73
2018-01-26T03:04:58.307Z,10.20
2018-01-26T03:07:25.798Z,10.97
2018-01-26T03:09:54.043Z,10.20
2018-01-26T03:12:21.539Z,10.90
2018-01-26T03:14:49.018Z,10.30
2018-01-26T03:17:16.522Z,10.67
2018-01-26T03:19:43.994Z,11.43
2018-01-26T03:22:11.467Z,11.67
2018-01-26T03:24:38.972Z,12.00
2018-01-26T03:27:06.452Z,12.77
2018-01-26T03:29:33.947Z,13.00
2018-01-26T03:32:02.199Z,12.47
2018-01-26T03:34:29.699Z,13.30
2018-01-26T03:36:57.194Z,13.17
2018-01-26T03:39:24.686Z,12.47
2018-01-26T03:41:52.166Z,13.50
2018-01-26T03:44:19.671Z,13.77
2018-01-26T03:46:47.146Z,14.33
2018-01-26T03:49:14.646Z,15.73
2018-01-26T03:51:42.123Z,13.63
2018-01-26T03:54:09.618Z,14.77
2018-01-26T03:56:37.094Z,15.80
2018-01-26T03:59:04.601Z,15.90
2018-01-26T04:01:32.847Z,17.50
2018-01-26T04:04:00.350Z,14.80
2018-01-26T04:06:27.831Z,17.70
2018-01-26T04:08:56.095Z,16.47
2018-01-26T04:11:23.572Z,16.83
2018-01-26T04:13:51.072Z,16.87
2018-01-26T04:16:18.559Z,16.60
2018-01-26T04:18:46.067Z,17.37
2018-01-26T04:21:13.542Z,16.27
2018-01-26T04:23:41.014Z,16.80
2018-01-26T04:26:08.508Z,15.90
2018-01-26T04:28:35.982Z,15.87
2018-01-26T04:31:04.255Z,17.10
2018-01-26T04:33:31.726Z,15.80
2018-01-26T04:36:00.013Z,17.03
2018-01-26T04:38:27.500Z,17.40
2018-01-26T04:40:55.000Z,16.70
2018-01-26T04:43:22.479Z,17.67
2018-01-26T04:45:49.975Z,18.70
2018-01-26T04:48:17.453Z,16.07
2018-01-26T04:50:44.952Z,16.73
2018-01-26T04:53:13.195Z,17.80
2018-01-26T04:55:40.691Z,16.53
2018-01-26T04:58:08.163Z,15.40
2018-01-26T05:00:35.660Z,14.37
2018-01-26T05:03:03.144Z,15.90
2018-01-26T05:05:30.639Z,15.77
2018-01-26T05:07:58.125Z,16.83
2018-01-26T05:10:25.624Z,15.53
2018-01-26T05:12:53.867Z,15.60
2018-01-26T05:15:21.375Z,14.90
2018-01-26T05:17:48.859Z,16.20
2018-01-26T05:20:17.099Z,13.73
2018-01-26T05:22:44.602Z,14.17
2018-01-26T05:25:12.078Z,14.07
2018-01-26T05:27:40.338Z,14.83
2018-01-26T05:30:07.821Z,12.97
2018-01-26T05:32:35.319Z,12.67
2018-01-26T05:35:03.567Z,13.37
2018-01-26T05:37:31.064Z,12.87
2018-01-26T05:39:59.311Z,13.93
2018-01-26T05:42:26.810Z,14.40
2018-01-26T05:44:54.279Z,14.10
2018-01-26T05:47:21.775Z,12.23
2018-01-26T05:49:50.016Z,11.57
2018-01-26T05:52:17.515Z,11.87
2018-01-26T05:54:44.994Z,11.43
2018-01-26T05:57:13.263Z,12.70
2018-01-26T05:59:40.734Z,11.30
2018-01-26T06:02:08.231Z,11.43
2018-01-26T06:04:36.470Z,12.47
2018-01-26T06:07:03.981Z,12.57
2018-01-26T06:09:32.231Z,12.67
2018-01-26T06:11:59.742Z,12.67
2018-01-26T06:14:27.987Z,12.10
2018-01-26T06:16:55.483Z,10.90
2018-01-26T06:19:22.962Z,11.93
2018-01-26T06:21:51.211Z,13.20
2018-01-26T06:24:18.706Z,9.73
2018-01-26T06:26:46.183Z,10.57
2018-01-26T06:29:13.686Z,10.97
2018-01-26T06:31:41.163Z,11.33
2018-01-26T06:34:08.659Z,10.90
2018-01-26T06:36:36.133Z,10.27
2018-01-26T06:39:03.643Z,11.30
2018-01-26T06:41:31.119Z,11.07
2018-01-26T06:43:59.391Z,10.30
2018-01-26T06:46:26.873Z,10.00
2018-01-26T06:48:58.704Z,11.10
2018-01-26T06:51:26.193Z,9.60
2018-01-26T06:53:54.662Z,10.90
2018-01-26T06:56:22.127Z,9.17
2018-01-26T06:58:49.626Z,10.70
2018-01-26T07:01:17.115Z,8.57
2018-01-26T07:03:45.414Z,9.77
2018-01-26T07:06:13.658Z,10.00
2018-01-26T07:08:41.151Z,9.30
2018-01-26T07:11:08.620Z,8.43
2018-01-26T07:13:36.120Z,9.93
2018-01-26T07:16:03.590Z,9.13
2018-01-26T07:18:31.091Z,8.83
2018-01-26T07:20:58.572Z,10.10
2018-01-26T07:23:29.724Z,8.90
2018-01-26T07:25:57.204Z,8.17
2018-01-26T07:28:24.710Z,15.23
2018-01-26T07:30:52.982Z,61.70
2018-01-26T07:33:20.499Z,26.03
2018-01-26T07:35:47.983Z,32.00
2018-01-26T07:38:15.487Z,19.50
2018-01-26T07:40:55.274Z,11.40
2018-01-26T07:43:23.564Z,10.10
2018-01-26T07:45:51.800Z,8.63
2018-01-26T07:48:19.355Z,8.70
2018-01-26T07:50:46.936Z,8.20
2018-01-26T07:53:14.430Z,8.50
2018-01-26T07:55:41.942Z,8.20
2018-01-26T07:58:10.203Z,8.57
2018-01-26T08:00:37.685Z,10.13
2018-01-26T08:03:05.953Z,10.00
2018-01-26T08:05:33.435Z,11.20
2018-01-26T08:08:00.923Z,14.30
2018-01-26T08:10:30.086Z,20.73
2018-01-26T08:12:57.569Z,23.60
2018-01-26T08:15:25.078Z,11.20
2018-01-26T08:17:53.318Z,9.13
2018-01-26T08:20:20.807Z,8.70
2018-01-26T08:22:48.313Z,8.43
2018-01-26T08:25:15.811Z,9.53
2018-01-26T08:27:43.288Z,8.10
2018-01-26T08:30:10.780Z,8.57
2018-01-26T08:32:38.254Z,9.50
2018-01-26T08:35:05.751Z,8.93
2018-01-26T08:37:33.990Z,10.40
2018-01-26T08:40:01.483Z,13.63
2018-01-26T08:42:28.971Z,10.47
2018-01-26T08:44:56.492Z,12.00
2018-01-26T08:47:23.979Z,8.90
2018-01-26T08:49:51.474Z,8.00
2018-01-26T08:52:19.715Z,8.03
2018-01-26T08:54:47.207Z,7.67
2018-01-26T08:57:14.690Z,13.77
2018-01-26T08:59:42.191Z,13.27
2018-01-26T09:02:10.435Z,7.07
2018-01-26T09:04:37.952Z,7.87
2018-01-26T09:07:05.426Z,6.57
2018-01-26T09:09:32.931Z,6.20
2018-01-26T09:12:00.403Z,7.10
2018-01-26T09:14:27.935Z,6.30
2018-01-26T09:16:55.426Z,9.00
2018-01-26T09:19:22.906Z,11.70
2018-01-26T09:21:50.404Z,6.57
2018-01-26T09:24:17.872Z,6.70
2018-01-26T09:26:45.373Z,6.30
2018-01-26T09:29:13.696Z,5.60
2018-01-26T09:31:41.194Z,6.23
2018-01-26T09:34:08.671Z,5.53
2018-01-26T09:36:36.162Z,6.13
2018-01-26T09:39:03.648Z,6.30
2018-01-26T09:41:31.160Z,5.20
2018-01-26T09:43:58.685Z,5.73
2018-01-26T09:46:26.935Z,5.90
2018-01-26T09:48:54.407Z,5.77
2018-01-26T09:51:21.900Z,6.07
2018-01-26T09:53:49.379Z,6.17
2018-01-26T09:56:17.663Z,5.40
2018-01-26T09:58:45.910Z,5.87
2018-01-26T10:01:13.404Z,5.57
2018-01-26T10:03:40.886Z,6.07
2018-01-26T10:06:09.151Z,5.83
2018-01-26T10:08:36.660Z,5.00
2018-01-26T10:11:04.934Z,5.90
2018-01-26T10:13:32.412Z,5.23
2018-01-26T10:16:00.674Z,5.40
2018-01-26T10:18:31.278Z,6.00
2018-01-26T10:20:58.794Z,5.80
2018-01-26T10:23:26.275Z,4.40
2018-01-26T10:25:54.518Z,5.63
2018-01-26T10:28:22.019Z,5.60
2018-01-26T10:30:49.517Z,5.30
2018-01-26T10:33:17.788Z,4.93
2018-01-26T10:35:45.263Z,5.67
2018-01-26T10:38:13.539Z,5.53
2018-01-26T10:40:41.021Z,5.30
2018-01-26T10:43:09.292Z,4.90
2018-01-26T10:45:36.775Z,5.27
2018-01-26T10:48:04.300Z,5.03
2018-01-26T10:50:31.766Z,4.73
2018-01-26T10:52:59.287Z,17.83
2018-01-26T10:55:27.530Z,4.13
2018-01-26T10:57:55.035Z,4.77
2018-01-26T11:00:22.507Z,5.80
2018-01-26T11:02:50.110Z,6.73
2018-01-26T11:05:17.586Z,6.73
2018-01-26T11:07:45.094Z,5.90
2018-01-26T11:10:12.566Z,5.97
2018-01-26T11:12:42.087Z,5.30
2018-01-26T11:15:09.575Z,5.70
2018-01-26T11:17:37.047Z,4.87
2018-01-26T11:20:04.548Z,5.70
2018-01-26T11:22:32.117Z,6.10
2018-01-26T11:24:59.671Z,6.27
2018-01-26T11:27:27.936Z,5.97
2018-01-26T11:29:55.431Z,5.20
2018-01-26T11:32:23.703Z,5.60
2018-01-26T11:34:51.202Z,5.87
2018-01-26T11:37:18.688Z,15.50
2018-01-26T11:39:46.200Z,6.30
2018-01-26T11:42:13.695Z,5.03
2018-01-26T11:44:41.197Z,4.90
2018-01-26T11:47:08.678Z,5.00
2018-01-26T11:49:36.183Z,5.43
2018-01-26T11:52:03.696Z,4.70
2018-01-26T11:54:31.196Z,4.50
2018-01-26T11:56:58.670Z,4.93
2018-01-26T11:59:26.159Z,3.80
2018-01-26T12:01:53.647Z,5.33
2018-01-26T12:04:21.147Z,4.13
2018-01-26T12:06:48.647Z,4.73
2018-01-26T12:09:16.158Z,3.97
2018-01-26T12:11:43.635Z,3.47
2018-01-26T12:14:11.126Z,4.27
2018-01-26T12:16:38.607Z,4.57
2018-01-26T12:19:06.115Z,18.50
2018-01-26T12:21:33.603Z,16.90
2018-01-26T12:24:01.106Z,5.47
2018-01-26T12:26:28.597Z,5.10
2018-01-26T12:28:56.075Z,4.20
2018-01-26T12:31:23.587Z,4.00
2018-01-26T12:33:51.063Z,4.00
2018-01-26T12:36:18.569Z,4.33
2018-01-26T12:38:46.054Z,3.73
2018-01-26T12:41:13.561Z,3.17
2018-01-26T12:43:41.036Z,2.90
2018-01-26T12:46:08.530Z,3.73
2018-01-26T12:48:36.771Z,3.03
2018-01-26T12:51:04.326Z,3.60
2018-01-26T12:53:31.798Z,3.63
2018-01-26T12:55:59.300Z,4.07
2018-01-26T12:58:26.804Z,4.90
2018-01-26T13:00:55.062Z,5.60
2018-01-26T13:03:22.534Z,4.50
2018-01-26T13:05:50.243Z,4.97
2018-01-26T13:08:17.712Z,4.20
2018-01-26T13:10:45.213Z,4.20
2018-01-26T13:13:12.691Z,4.83
2018-01-26T13:15:40.183Z,4.90
2018-01-26T13:18:07.658Z,5.63
2018-01-26T13:20:35.155Z,5.27
2018-01-26T13:23:02.635Z,5.33
2018-01-26T13:25:30.130Z,4.90
2018-01-26T13:27:57.607Z,5.20
2018-01-26T13:30:25.110Z,14.77
2018-01-26T13:32:52.596Z,7.40
2018-01-26T13:35:20.854Z,5.47
2018-01-26T13:37:48.348Z,5.83
2018-01-26T13:40:16.623Z,5.87
2018-01-26T13:42:44.103Z,6.10
2018-01-26T13:45:12.378Z,5.77
2018-01-26T13:47:39.851Z,6.10
2018-01-26T13:50:07.360Z,6.80
2018-01-26T13:52:34.859Z,6.73
2018-01-26T13:55:02.374Z,7.27
2018-01-26T13:57:30.622Z,7.07
2018-01-26T13:59:58.130Z,7.23
2018-01-26T14:02:25.608Z,7.70
2018-01-26T14:04:53.879Z,7.83
2018-01-26T14:07:21.359Z,8.90
2018-01-26T14:09:48.875Z,8.23
2018-01-26T14:12:16.355Z,7.27
2018-01-26T14:14:43.861Z,8.37
2018-01-26T14:17:11.342Z,7.33
2018-01-26T14:19:39.617Z,7.60
2018-01-26T14:22:07.095Z,7.57
2018-01-26T14:24:34.592Z,9.57
2018-01-26T14:27:02.070Z,8.00
2018-01-26T14:29:29.572Z,8.30
2018-01-26T14:31:57.046Z,8.17
2018-01-26T14:34:24.528Z,7.40
2018-01-26T14:36:52.039Z,5.17
2018-01-26T14:39:19.514Z,5.03
2018-01-26T14:41:47.007Z,4.57
2018-01-26T14:44:14.482Z,4.80
2018-01-26T14:46:41.979Z,15.23
2018-01-26T14:49:09.458Z,5.87
2018-01-26T14:51:36.959Z,6.10
2018-01-26T14:54:05.194Z,5.67
2018-01-26T14:56:32.707Z,5.67
2018-01-26T14:59:00.948Z,6.10
2018-01-26T15:01:28.443Z,6.57
2018-01-26T15:03:55.910Z,5.20
2018-01-26T15:06:23.407Z,6.10
2018-01-26T15:08:51.651Z,5.50
2018-01-26T15:11:19.143Z,5.43
2018-01-26T15:13:46.610Z,5.30
2018-01-26T15:16:14.107Z,5.33
2018-01-26T15:18:42.344Z,5.80
2018-01-26T15:21:09.843Z,5.20
2018-01-26T15:23:37.343Z,5.43
2018-01-26T15:26:04.839Z,5.93
2018-01-26T15:28:32.307Z,6.57
2018-01-26T15:31:00.574Z,6.50
2018-01-26T15:33:29.068Z,6.17
2018-01-26T15:35:56.578Z,21.50
2018-01-26T15:38:24.066Z,17.40
2018-01-26T15:40:51.556Z,8.87
2018-01-26T15:43:19.035Z,10.40
2018-01-26T15:45:47.304Z,14.20
2018-01-26T15:48:15.574Z,10.07
2018-01-26T15:50:43.063Z,9.63
2018-01-26T15:53:12.542Z,10.50
2018-01-26T15:55:40.051Z,10.43
2018-01-26T15:58:07.534Z,9.93
2018-01-26T16:00:35.800Z,10.00
2018-01-26T16:03:03.286Z,10.67
2018-01-26T16:05:31.547Z,10.33
2018-01-26T16:07:59.023Z,10.77
2018-01-26T16:10:26.515Z,10.40
2018-01-26T16:12:54.759Z,10.97
2018-01-26T16:15:22.263Z,10.83
2018-01-26T16:17:49.747Z,11.13
2018-01-26T16:20:18.175Z,10.70
2018-01-26T16:22:45.686Z,9.40
2018-01-26T16:25:13.192Z,10.60
2018-01-26T16:27:40.717Z,9.40
2018-01-26T16:30:08.210Z,10.43
2018-01-26T16:32:35.736Z,10.30
2018-01-26T16:35:03.255Z,9.23
2018-01-26T16:37:30.750Z,10.83
2018-01-26T16:39:58.235Z,9.43
2018-01-26T16:42:25.868Z,10.43
2018-01-26T16:44:53.374Z,11.10
2018-01-26T16:47:20.879Z,11.40
2018-01-26T16:49:48.356Z,10.50
2018-01-26T16:52:15.861Z,9.80
2018-01-26T16:54:44.102Z,10.93
2018-01-26T16:57:11.599Z,10.57
2018-01-26T16:59:39.074Z,10.17
2018-01-26T17:02:06.571Z,11.80
2018-01-26T17:04:34.046Z,11.60
2018-01-26T17:07:01.545Z,12.07
2018-01-26T17:09:29.023Z,13.40
2018-01-26T17:11:56.526Z,13.57
2018-01-26T17:14:24.002Z,13.23
2018-01-26T17:16:52.272Z,14.50
2018-01-26T17:19:19.747Z,13.80
2018-01-26T17:21:47.238Z,14.13
2018-01-26T17:24:15.483Z,12.60
2018-01-26T17:26:42.975Z,12.57
2018-01-26T17:29:10.459Z,13.20
2018-01-26T17:31:37.964Z,12.90
2018-01-26T17:34:05.442Z,14.30
2018-01-26T17:36:33.508Z,29.40
2018-01-26T17:39:01.088Z,25.53
2018-01-26T17:41:28.646Z,15.37
2018-01-26T17:43:56.200Z,13.03
2018-01-26T17:46:24.490Z,13.43
2018-01-26T17:48:52.744Z,11.43
2018-01-26T17:51:20.244Z,14.13
2018-01-26T17:53:48.499Z,13.00
2018-01-26T17:56:15.994Z,11.77
2018-01-26T17:58:43.468Z,10.40
2018-01-26T18:01:11.731Z,12.40
2018-01-26T18:03:39.206Z,11.37
2018-01-26T18:06:06.699Z,12.23
2018-01-26T18:08:34.944Z,12.40
2018-01-26T18:11:02.441Z,13.77
2018-01-26T18:13:31.915Z,26.77
2018-01-26T18:15:59.434Z,21.27
2018-01-26T18:18:26.919Z,21.10
2018-01-26T18:20:55.190Z,18.43
2018-01-26T18:23:22.671Z,16.30
2018-01-26T18:25:50.930Z,22.80
2018-01-26T18:28:18.405Z,27.30
2018-01-26T18:30:45.920Z,19.97
2018-01-26T18:33:13.399Z,16.37
2018-01-26T18:35:40.894Z,14.17
2018-01-26T18:38:08.372Z,14.47
2018-01-26T18:40:35.855Z,13.17
2018-01-26T18:43:03.366Z,22.13
2018-01-26T18:45:30.855Z,16.80
2018-01-26T18:47:58.355Z,14.00
2018-01-26T18:50:25.844Z,14.97
2018-01-26T18:52:53.351Z,13.13
2018-01-26T18:55:20.826Z,15.60
2018-01-26T18:57:48.335Z,16.20
2018-01-26T19:00:15.827Z,18.63
2018-01-26T19:02:43.323Z,18.03
2018-01-26T19:05:11.593Z,20.60
2018-01-26T19:07:39.102Z,20.73
2018-01-26T19:10:06.583Z,21.60
2018-01-26T19:12:34.111Z,25.23
2018-01-26T19:15:02.395Z,38.97
2018-01-26T19:17:30.676Z,41.57
2018-01-26T19:19:58.172Z,30.80
2018-01-26T19:22:25.688Z,31.73
2018-01-26T19:24:53.170Z,31.67
2018-01-26T19:27:20.676Z,24.20
2018-01-26T19:29:48.931Z,23.83
2018-01-26T19:32:16.436Z,23.10
2018-01-26T19:34:44.683Z,19.90
2018-01-26T19:37:12.199Z,19.60
2018-01-26T19:39:40.459Z,18.40
2018-01-26T19:42:07.972Z,17.90
2018-01-26T19:44:35.460Z,18.70
2018-01-26T19:47:02.978Z,18.27
2018-01-26T19:49:31.234Z,19.97
2018-01-26T19:51:58.736Z,15.03
2018-01-26T19:54:26.230Z,14.50
2018-01-26T19:56:53.775Z,15.83
2018-01-26T19:59:21.267Z,18.47
2018-01-26T20:01:48.779Z,74.80
2018-01-26T20:04:28.680Z,24.03
2018-01-26T20:07:14.560Z,21.87
2018-01-26T20:09:42.044Z,19.80
2018-01-26T20:12:11.327Z,21.53
2018-01-26T20:14:38.803Z,20.93
2018-01-26T20:17:06.316Z,23.43
2018-01-26T20:19:34.559Z,21.37
2018-01-26T20:22:02.067Z,20.33
2018-01-26T20:24:29.550Z,19.23
2018-01-26T20:26:57.827Z,18.20
2018-01-26T20:29:26.075Z,20.30
2018-01-26T20:31:53.575Z,17.63
2018-01-26T20:34:21.054Z,19.37
2018-01-26T20:36:49.318Z,19.50
2018-01-26T20:39:16.795Z,21.13
2018-01-26T20:41:44.306Z,16.87
2018-01-26T20:44:11.782Z,16.57
2018-01-26T20:46:39.283Z,16.77
2018-01-26T20:49:06.767Z,19.20
2018-01-26T20:51:34.281Z,20.77
2018-01-26T20:54:01.771Z,17.80
2018-01-26T20:56:29.280Z,16.67
2018-01-26T20:58:56.774Z,15.70
2018-01-26T21:01:25.070Z,17.17
2018-01-26T21:04:04.742Z,14.80
2018-01-26T21:06:32.240Z,14.80
2018-01-26T21:08:59.716Z,15.07
2018-01-26T21:11:27.214Z,13.90
2018-01-26T21:13:54.695Z,14.03
2018-01-26T21:16:22.195Z,13.87
2018-01-26T21:18:49.687Z,13.87
2018-01-26T21:21:19.067Z,45.40
2018-01-26T21:23:47.339Z,65.27
2018-01-26T21:26:14.818Z,18.40
2018-01-26T21:28:43.078Z,14.40
2018-01-26T21:31:10.556Z,13.63
2018-01-26T21:33:38.060Z,12.97
2018-01-26T21:36:05.543Z,12.57
2018-01-26T21:38:33.039Z,12.00
2018-01-26T21:41:00.531Z,13.77
2018-01-26T21:43:28.031Z,14.30
2018-01-26T21:45:56.279Z,14.70
2018-01-26T21:48:23.775Z,13.20
2018-01-26T21:50:52.015Z,15.03
2018-01-26T21:53:19.514Z,15.80
2018-01-26T21:55:46.990Z,16.07
2018-01-26T21:58:14.494Z,14.70
2018-01-26T22:00:41.974Z,14.47
2018-01-26T22:03:09.475Z,18.57
2018-01-26T22:05:36.950Z,23.67
2018-01-26T22:08:04.446Z,24.70
2018-01-26T22:10:31.926Z,19.93
2018-01-26T22:13:00.195Z,15.00
2018-01-26T22:15:27.670Z,14.33
2018-01-26T22:17:55.166Z,12.80
2018-01-26T22:20:23.417Z,13.30
2018-01-26T22:22:50.917Z,13.87
2018-01-26T22:25:19.160Z,15.00
2018-01-26T22:27:46.659Z,14.53
2018-01-26T22:30:14.142Z,16.70
2018-01-26T22:32:42.402Z,19.80
2018-01-26T22:35:09.883Z,36.77
2018-01-26T22:37:37.375Z,32.13
2018-01-26T22:40:05.614Z,19.23
2018-01-26T22:42:33.111Z,19.80
2018-01-26T22:45:00.599Z,25.80
2018-01-26T22:47:28.863Z,25.20
2018-01-26T22:49:56.338Z,26.30
2018-01-26T22:52:23.826Z,24.07
2018-01-26T22:54:52.076Z,24.20
2018-01-26T22:57:19.570Z,22.57
2018-01-26T22:59:47.050Z,19.03
2018-01-26T23:02:15.316Z,16.40
2018-01-26T23:04:42.791Z,17.53
2018-01-26T23:07:10.290Z,19.80
2018-01-26T23:09:38.535Z,17.97
2018-01-26T23:12:06.027Z,17.93
2018-01-26T23:14:33.498Z,15.93
2018-01-26T23:17:00.991Z,15.93
2018-01-26T23:19:29.230Z,15.30
2018-01-26T23:21:56.727Z,15.80
2018-01-26T23:24:24.987Z,16.20
2018-01-26T23:26:52.463Z,14.60
2018-01-26T23:29:19.962Z,13.93
2018-01-26T23:31:48.204Z,12.67
2018-01-26T23:34:15.699Z,13.53
2018-01-26T23:36:43.179Z,12.73
2018-01-26T23:39:10.672Z,12.23
2018-01-26T23:41:38.150Z,12.23
2018-01-26T23:44:05.647Z,11.63
2018-01-26T23:46:33.127Z,11.43
2018-01-26T23:49:00.627Z,11.90
2018-01-26T23:51:28.111Z,13.20
2018-01-26T23:53:56.376Z,11.43
2018-01-26T23:56:23.853Z,11.37
2018-01-26T23:58:51.347Z,10.90
